sensor_id;sensor_type;location;lat;lon;timestamp;P1;durP1;ratioP1;P2;durP2;ratioP2
6288;SDS011;3177;49.880;8.836;2023-07-30T00:00:59;2.30;;;2.00;;
6288;SDS011;3177;49.880;8.836;2023-07-30T00:03:26;2.10;;;1.90;;
6288;SDS011;3177;49.880;8.836;2023-07-30T00:05:53;3.00;;;2.22;;
6288;SDS011;3177;49.880;8.836;2023-07-30T00:08:21;1.92;;;1.73;;
6288;SDS011;3177;49.880;8.836;2023-07-30T00:10:54;1.90;;;1.70;;
6288;SDS011;3177;49.880;8.836;2023-07-30T00:13:32;1.60;;;1.50;;
6288;SDS011;3177;49.880;8.836;2023-07-30T00:16:05;1.55;;;1.45;;
6288;SDS011;3177;49.880;8.836;2023-07-30T00:18:32;1.98;;;1.70;;
6288;SDS011;3177;49.880;8.836;2023-07-30T00:21:00;2.40;;;1.70;;
6288;SDS011;3177;49.880;8.836;2023-07-30T00:23:27;2.03;;;1.60;;
6288;SDS011;3177;49.880;8.836;2023-07-30T00:25:56;1.65;;;1.55;;
6288;SDS011;3177;49.880;8.836;2023-07-30T00:28:27;1.70;;;1.60;;
6288;SDS011;3177;49.880;8.836;2023-07-30T00:30:54;2.58;;;1.40;;
6288;SDS011;3177;49.880;8.836;2023-07-30T00:33:23;1.98;;;1.77;;
6288;SDS011;3177;49.880;8.836;2023-07-30T00:35:52;1.30;;;1.20;;
6288;SDS011;3177;49.880;8.836;2023-07-30T00:38:19;1.55;;;1.45;;
6288;SDS011;3177;49.880;8.836;2023-07-30T00:40:57;2.35;;;1.45;;
6288;SDS011;3177;49.880;8.836;2023-07-30T00:43:24;1.20;;;1.13;;
6288;SDS011;3177;49.880;8.836;2023-07-30T00:45:53;1.58;;;1.48;;
6288;SDS011;3177;49.880;8.836;2023-07-30T00:48:26;2.20;;;2.10;;
6288;SDS011;3177;49.880;8.836;2023-07-30T00:51:01;1.23;;;1.20;;
6288;SDS011;3177;49.880;8.836;2023-07-30T00:53:31;3.10;;;1.40;;
6288;SDS011;3177;49.880;8.836;2023-07-30T00:55:59;2.85;;;1.50;;
6288;SDS011;3177;49.880;8.836;2023-07-30T00:58:27;2.00;;;1.35;;
6288;SDS011;3177;49.880;8.836;2023-07-30T01:00:54;1.63;;;1.52;;
6288;SDS011;3177;49.880;8.836;2023-07-30T01:03:21;1.60;;;1.50;;
6288;SDS011;3177;49.880;8.836;2023-07-30T01:05:52;1.70;;;1.35;;
6288;SDS011;3177;49.880;8.836;2023-07-30T01:08:22;1.55;;;1.40;;
6288;SDS011;3177;49.880;8.836;2023-07-30T01:11:03;2.15;;;1.67;;
6288;SDS011;3177;49.880;8.836;2023-07-30T01:13:31;1.90;;;1.80;;
6288;SDS011;3177;49.880;8.836;2023-07-30T01:16:09;1.85;;;1.33;;
6288;SDS011;3177;49.880;8.836;2023-07-30T01:18:39;1.10;;;1.10;;
6288;SDS011;3177;49.880;8.836;2023-07-30T01:21:08;1.50;;;1.40;;
6288;SDS011;3177;49.880;8.836;2023-07-30T01:23:35;1.52;;;1.40;;
6288;SDS011;3177;49.880;8.836;2023-07-30T01:26:03;1.35;;;1.25;;
6288;SDS011;3177;49.880;8.836;2023-07-30T01:28:36;1.48;;;1.38;;
6288;SDS011;3177;49.880;8.836;2023-07-30T01:31:14;2.42;;;1.60;;
6288;SDS011;3177;49.880;8.836;2023-07-30T01:33:44;2.67;;;1.50;;
6288;SDS011;3177;49.880;8.836;2023-07-30T01:36:25;1.67;;;1.50;;
6288;SDS011;3177;49.880;8.836;2023-07-30T01:38:53;2.30;;;1.73;;
6288;SDS011;3177;49.880;8.836;2023-07-30T01:41:23;1.50;;;1.40;;
6288;SDS011;3177;49.880;8.836;2023-07-30T01:43:54;1.60;;;1.50;;
6288;SDS011;3177;49.880;8.836;2023-07-30T01:46:23;1.65;;;1.30;;
6288;SDS011;3177;49.880;8.836;2023-07-30T01:48:56;1.58;;;1.48;;
6288;SDS011;3177;49.880;8.836;2023-07-30T01:51:24;1.63;;;1.52;;
6288;SDS011;3177;49.880;8.836;2023-07-30T01:56:41;1.38;;;1.27;;
6288;SDS011;3177;49.880;8.836;2023-07-30T01:59:15;4.43;;;1.60;;
6288;SDS011;3177;49.880;8.836;2023-07-30T02:01:43;1.77;;;1.67;;
6288;SDS011;3177;49.880;8.836;2023-07-30T02:04:10;4.00;;;1.58;;
6288;SDS011;3177;49.880;8.836;2023-07-30T02:06:39;1.40;;;1.33;;
6288;SDS011;3177;49.880;8.836;2023-07-30T02:09:06;1.60;;;1.50;;
6288;SDS011;3177;49.880;8.836;2023-07-30T02:11:33;1.75;;;1.50;;
6288;SDS011;3177;49.880;8.836;2023-07-30T02:14:02;1.70;;;1.60;;
6288;SDS011;3177;49.880;8.836;2023-07-30T02:16:30;1.63;;;1.52;;
6288;SDS011;3177;49.880;8.836;2023-07-30T02:18:57;1.95;;;1.75;;
6288;SDS011;3177;49.880;8.836;2023-07-30T02:21:24;1.77;;;1.67;;
6288;SDS011;3177;49.880;8.836;2023-07-30T02:23:52;1.77;;;1.67;;
6288;SDS011;3177;49.880;8.836;2023-07-30T02:26:20;2.40;;;1.67;;
6288;SDS011;3177;49.880;8.836;2023-07-30T02:28:48;1.65;;;1.55;;
6288;SDS011;3177;49.880;8.836;2023-07-30T02:31:20;3.30;;;1.73;;
6288;SDS011;3177;49.880;8.836;2023-07-30T02:33:52;1.63;;;1.52;;
6288;SDS011;3177;49.880;8.836;2023-07-30T02:36:19;1.60;;;1.50;;
6288;SDS011;3177;49.880;8.836;2023-07-30T02:38:46;1.70;;;1.60;;
6288;SDS011;3177;49.880;8.836;2023-07-30T02:41:15;3.15;;;1.92;;
6288;SDS011;3177;49.880;8.836;2023-07-30T02:43:43;1.98;;;1.60;;
6288;SDS011;3177;49.880;8.836;2023-07-30T02:46:10;2.00;;;1.60;;
6288;SDS011;3177;49.880;8.836;2023-07-30T02:48:40;1.45;;;1.30;;
6288;SDS011;3177;49.880;8.836;2023-07-30T02:51:09;1.50;;;1.40;;
6288;SDS011;3177;49.880;8.836;2023-07-30T02:53:38;1.80;;;1.70;;
6288;SDS011;3177;49.880;8.836;2023-07-30T02:56:07;1.50;;;1.40;;
6288;SDS011;3177;49.880;8.836;2023-07-30T02:58:47;1.50;;;1.40;;
6288;SDS011;3177;49.880;8.836;2023-07-30T03:01:15;1.75;;;1.48;;
6288;SDS011;3177;49.880;8.836;2023-07-30T03:03:50;2.10;;;1.52;;
6288;SDS011;3177;49.880;8.836;2023-07-30T03:06:17;4.30;;;1.52;;
6288;SDS011;3177;49.880;8.836;2023-07-30T03:08:44;1.65;;;1.55;;
6288;SDS011;3177;49.880;8.836;2023-07-30T03:11:18;1.10;;;1.10;;
6288;SDS011;3177;49.880;8.836;2023-07-30T03:13:46;1.70;;;1.60;;
6288;SDS011;3177;49.880;8.836;2023-07-30T03:16:13;1.33;;;1.23;;
6288;SDS011;3177;49.880;8.836;2023-07-30T03:18:40;1.70;;;1.60;;
6288;SDS011;3177;49.880;8.836;2023-07-30T03:21:10;1.60;;;1.40;;
6288;SDS011;3177;49.880;8.836;2023-07-30T03:23:37;3.88;;;1.40;;
6288;SDS011;3177;49.880;8.836;2023-07-30T03:26:08;2.22;;;1.70;;
6288;SDS011;3177;49.880;8.836;2023-07-30T03:28:35;1.55;;;1.45;;
6288;SDS011;3177;49.880;8.836;2023-07-30T03:31:08;1.40;;;1.30;;
6288;SDS011;3177;49.880;8.836;2023-07-30T03:33:36;2.53;;;1.67;;
6288;SDS011;3177;49.880;8.836;2023-07-30T03:36:04;2.75;;;1.85;;
6288;SDS011;3177;49.880;8.836;2023-07-30T03:38:33;1.77;;;1.58;;
6288;SDS011;3177;49.880;8.836;2023-07-30T03:41:05;1.30;;;1.30;;
6288;SDS011;3177;49.880;8.836;2023-07-30T03:43:37;2.38;;;1.38;;
6288;SDS011;3177;49.880;8.836;2023-07-30T03:46:04;2.50;;;1.30;;
6288;SDS011;3177;49.880;8.836;2023-07-30T03:48:33;1.95;;;1.35;;
6288;SDS011;3177;49.880;8.836;2023-07-30T03:51:10;1.63;;;1.52;;
6288;SDS011;3177;49.880;8.836;2023-07-30T03:53:39;1.50;;;1.40;;
6288;SDS011;3177;49.880;8.836;2023-07-30T03:56:07;2.47;;;1.58;;
6288;SDS011;3177;49.880;8.836;2023-07-30T03:58:35;1.70;;;1.60;;
6288;SDS011;3177;49.880;8.836;2023-07-30T04:01:02;2.95;;;1.50;;
6288;SDS011;3177;49.880;8.836;2023-07-30T04:03:35;1.92;;;1.77;;
6288;SDS011;3177;49.880;8.836;2023-07-30T04:06:03;1.48;;;1.38;;
6288;SDS011;3177;49.880;8.836;2023-07-30T04:08:30;1.65;;;1.40;;
6288;SDS011;3177;49.880;8.836;2023-07-30T04:11:06;3.17;;;1.50;;
6288;SDS011;3177;49.880;8.836;2023-07-30T04:13:34;1.52;;;1.40;;
6288;SDS011;3177;49.880;8.836;2023-07-30T04:16:05;1.58;;;1.42;;
6288;SDS011;3177;49.880;8.836;2023-07-30T04:18:33;2.05;;;1.40;;
6288;SDS011;3177;49.880;8.836;2023-07-30T04:21:02;1.60;;;1.50;;
6288;SDS011;3177;49.880;8.836;2023-07-30T04:23:29;1.42;;;1.30;;
6288;SDS011;3177;49.880;8.836;2023-07-30T04:25:56;1.40;;;1.30;;
6288;SDS011;3177;49.880;8.836;2023-07-30T04:28:23;1.60;;;1.50;;
6288;SDS011;3177;49.880;8.836;2023-07-30T04:30:50;3.28;;;1.60;;
6288;SDS011;3177;49.880;8.836;2023-07-30T04:33:17;2.00;;;1.30;;
6288;SDS011;3177;49.880;8.836;2023-07-30T04:35:44;1.75;;;1.50;;
6288;SDS011;3177;49.880;8.836;2023-07-30T04:38:13;1.77;;;1.67;;
6288;SDS011;3177;49.880;8.836;2023-07-30T04:40:40;1.70;;;1.60;;
6288;SDS011;3177;49.880;8.836;2023-07-30T04:43:07;1.73;;;1.63;;
6288;SDS011;3177;49.880;8.836;2023-07-30T04:45:34;1.95;;;1.67;;
6288;SDS011;3177;49.880;8.836;2023-07-30T04:48:02;1.92;;;1.83;;
6288;SDS011;3177;49.880;8.836;2023-07-30T04:50:29;1.92;;;1.83;;
6288;SDS011;3177;49.880;8.836;2023-07-30T04:52:56;1.80;;;1.70;;
6288;SDS011;3177;49.880;8.836;2023-07-30T04:55:25;2.03;;;1.85;;
6288;SDS011;3177;49.880;8.836;2023-07-30T04:57:52;1.95;;;1.80;;
6288;SDS011;3177;49.880;8.836;2023-07-30T05:00:19;2.20;;;2.00;;
6288;SDS011;3177;49.880;8.836;2023-07-30T05:02:47;2.03;;;1.92;;
6288;SDS011;3177;49.880;8.836;2023-07-30T05:05:14;1.75;;;1.65;;
6288;SDS011;3177;49.880;8.836;2023-07-30T05:07:41;1.83;;;1.58;;
6288;SDS011;3177;49.880;8.836;2023-07-30T05:10:11;2.13;;;1.90;;
6288;SDS011;3177;49.880;8.836;2023-07-30T05:12:39;1.83;;;1.73;;
6288;SDS011;3177;49.880;8.836;2023-07-30T05:15:07;2.33;;;1.77;;
6288;SDS011;3177;49.880;8.836;2023-07-30T05:17:34;1.88;;;1.77;;
6288;SDS011;3177;49.880;8.836;2023-07-30T05:20:01;2.25;;;2.05;;
6288;SDS011;3177;49.880;8.836;2023-07-30T05:22:29;1.95;;;1.80;;
6288;SDS011;3177;49.880;8.836;2023-07-30T05:25:05;2.08;;;1.98;;
6288;SDS011;3177;49.880;8.836;2023-07-30T05:27:32;3.45;;;2.20;;
6288;SDS011;3177;49.880;8.836;2023-07-30T05:30:01;1.88;;;1.77;;
6288;SDS011;3177;49.880;8.836;2023-07-30T05:32:28;1.77;;;1.67;;
6288;SDS011;3177;49.880;8.836;2023-07-30T05:34:58;2.70;;;1.83;;
6288;SDS011;3177;49.880;8.836;2023-07-30T05:37:26;5.53;;;2.10;;
6288;SDS011;3177;49.880;8.836;2023-07-30T05:39:53;1.95;;;1.85;;
6288;SDS011;3177;49.880;8.836;2023-07-30T05:42:23;2.47;;;2.28;;
6288;SDS011;3177;49.880;8.836;2023-07-30T05:44:53;2.10;;;1.92;;
6288;SDS011;3177;49.880;8.836;2023-07-30T05:47:22;2.95;;;2.47;;
6288;SDS011;3177;49.880;8.836;2023-07-30T05:49:49;2.40;;;2.20;;
6288;SDS011;3177;49.880;8.836;2023-07-30T05:52:19;3.30;;;2.13;;
6288;SDS011;3177;49.880;8.836;2023-07-30T05:54:56;2.40;;;2.15;;
6288;SDS011;3177;49.880;8.836;2023-07-30T05:57:26;3.08;;;2.30;;
6288;SDS011;3177;49.880;8.836;2023-07-30T05:59:56;2.75;;;2.33;;
6288;SDS011;3177;49.880;8.836;2023-07-30T06:02:28;3.00;;;2.47;;
6288;SDS011;3177;49.880;8.836;2023-07-30T06:04:56;2.70;;;2.50;;
6288;SDS011;3177;49.880;8.836;2023-07-30T06:07:23;2.35;;;2.17;;
6288;SDS011;3177;49.880;8.836;2023-07-30T06:09:50;4.15;;;2.92;;
6288;SDS011;3177;49.880;8.836;2023-07-30T06:12:17;3.47;;;2.60;;
6288;SDS011;3177;49.880;8.836;2023-07-30T06:14:44;1.95;;;1.85;;
6288;SDS011;3177;49.880;8.836;2023-07-30T06:17:11;2.40;;;2.20;;
6288;SDS011;3177;49.880;8.836;2023-07-30T06:19:40;2.00;;;1.90;;
6288;SDS011;3177;49.880;8.836;2023-07-30T06:22:07;1.90;;;1.80;;
6288;SDS011;3177;49.880;8.836;2023-07-30T06:24:35;2.05;;;1.70;;
6288;SDS011;3177;49.880;8.836;2023-07-30T06:27:02;2.00;;;1.90;;
6288;SDS011;3177;49.880;8.836;2023-07-30T06:29:29;1.92;;;1.73;;
6288;SDS011;3177;49.880;8.836;2023-07-30T06:31:56;2.15;;;1.70;;
6288;SDS011;3177;49.880;8.836;2023-07-30T06:34:23;2.03;;;1.50;;
6288;SDS011;3177;49.880;8.836;2023-07-30T06:36:51;1.92;;;1.77;;
6288;SDS011;3177;49.880;8.836;2023-07-30T06:39:18;2.03;;;1.92;;
6288;SDS011;3177;49.880;8.836;2023-07-30T06:41:46;1.90;;;1.70;;
6288;SDS011;3177;49.880;8.836;2023-07-30T06:44:13;2.88;;;1.90;;
6288;SDS011;3177;49.880;8.836;2023-07-30T06:46:41;1.60;;;1.50;;
6288;SDS011;3177;49.880;8.836;2023-07-30T06:49:08;1.77;;;1.58;;
6288;SDS011;3177;49.880;8.836;2023-07-30T06:51:35;1.95;;;1.40;;
6288;SDS011;3177;49.880;8.836;2023-07-30T06:54:03;1.85;;;1.50;;
6288;SDS011;3177;49.880;8.836;2023-07-30T06:56:30;1.50;;;1.27;;
6288;SDS011;3177;49.880;8.836;2023-07-30T06:58:57;1.23;;;1.23;;
6288;SDS011;3177;49.880;8.836;2023-07-30T07:01:24;2.08;;;1.50;;
6288;SDS011;3177;49.880;8.836;2023-07-30T07:03:51;1.58;;;1.48;;
6288;SDS011;3177;49.880;8.836;2023-07-30T07:06:18;1.13;;;1.10;;
6288;SDS011;3177;49.880;8.836;2023-07-30T07:08:45;1.15;;;1.05;;
6288;SDS011;3177;49.880;8.836;2023-07-30T07:11:14;1.55;;;1.30;;
6288;SDS011;3177;49.880;8.836;2023-07-30T07:13:41;1.67;;;1.30;;
6288;SDS011;3177;49.880;8.836;2023-07-30T07:16:08;1.20;;;1.10;;
6288;SDS011;3177;49.880;8.836;2023-07-30T07:18:35;3.55;;;1.38;;
6288;SDS011;3177;49.880;8.836;2023-07-30T07:21:02;1.55;;;1.45;;
6288;SDS011;3177;49.880;8.836;2023-07-30T07:23:29;2.15;;;1.50;;
6288;SDS011;3177;49.880;8.836;2023-07-30T07:25:57;1.90;;;1.20;;
6288;SDS011;3177;49.880;8.836;2023-07-30T07:28:25;1.35;;;1.30;;
6288;SDS011;3177;49.880;8.836;2023-07-30T07:30:54;4.00;;;1.30;;
6288;SDS011;3177;49.880;8.836;2023-07-30T07:33:21;1.40;;;1.30;;
6288;SDS011;3177;49.880;8.836;2023-07-30T07:35:48;1.42;;;1.33;;
6288;SDS011;3177;49.880;8.836;2023-07-30T07:38:15;3.55;;;1.70;;
6288;SDS011;3177;49.880;8.836;2023-07-30T07:40:42;1.25;;;1.13;;
6288;SDS011;3177;49.880;8.836;2023-07-30T07:43:10;3.42;;;1.25;;
6288;SDS011;3177;49.880;8.836;2023-07-30T07:45:39;1.55;;;1.45;;
6288;SDS011;3177;49.880;8.836;2023-07-30T07:48:06;1.55;;;1.42;;
6288;SDS011;3177;49.880;8.836;2023-07-30T07:50:33;1.30;;;1.20;;
6288;SDS011;3177;49.880;8.836;2023-07-30T07:53:00;1.33;;;1.23;;
6288;SDS011;3177;49.880;8.836;2023-07-30T07:55:27;1.48;;;1.38;;
6288;SDS011;3177;49.880;8.836;2023-07-30T07:57:54;1.60;;;1.50;;
6288;SDS011;3177;49.880;8.836;2023-07-30T08:00:21;1.85;;;1.75;;
6288;SDS011;3177;49.880;8.836;2023-07-30T08:02:49;2.05;;;1.73;;
6288;SDS011;3177;49.880;8.836;2023-07-30T08:05:16;1.73;;;1.60;;
6288;SDS011;3177;49.880;8.836;2023-07-30T08:07:44;2.65;;;1.73;;
6288;SDS011;3177;49.880;8.836;2023-07-30T08:10:12;2.42;;;1.60;;
6288;SDS011;3177;49.880;8.836;2023-07-30T08:12:39;2.17;;;1.70;;
6288;SDS011;3177;49.880;8.836;2023-07-30T08:15:06;1.70;;;1.60;;
6288;SDS011;3177;49.880;8.836;2023-07-30T08:17:34;1.75;;;1.63;;
6288;SDS011;3177;49.880;8.836;2023-07-30T08:20:02;3.00;;;1.77;;
6288;SDS011;3177;49.880;8.836;2023-07-30T08:22:29;1.75;;;1.65;;
6288;SDS011;3177;49.880;8.836;2023-07-30T08:24:56;1.73;;;1.63;;
6288;SDS011;3177;49.880;8.836;2023-07-30T08:27:23;1.60;;;1.50;;
6288;SDS011;3177;49.880;8.836;2023-07-30T08:29:50;1.90;;;1.55;;
6288;SDS011;3177;49.880;8.836;2023-07-30T08:32:17;1.55;;;1.42;;
6288;SDS011;3177;49.880;8.836;2023-07-30T08:34:44;1.80;;;1.45;;
6288;SDS011;3177;49.880;8.836;2023-07-30T08:37:13;1.30;;;1.02;;
6288;SDS011;3177;49.880;8.836;2023-07-30T08:39:40;1.52;;;1.42;;
6288;SDS011;3177;49.880;8.836;2023-07-30T08:42:07;1.60;;;1.40;;
6288;SDS011;3177;49.880;8.836;2023-07-30T08:44:34;2.97;;;1.48;;
6288;SDS011;3177;49.880;8.836;2023-07-30T08:47:02;1.45;;;1.35;;
6288;SDS011;3177;49.880;8.836;2023-07-30T08:49:29;2.08;;;1.50;;
6288;SDS011;3177;49.880;8.836;2023-07-30T08:51:58;2.85;;;1.48;;
6288;SDS011;3177;49.880;8.836;2023-07-30T08:54:26;2.90;;;1.15;;
6288;SDS011;3177;49.880;8.836;2023-07-30T08:56:56;1.92;;;1.60;;
6288;SDS011;3177;49.880;8.836;2023-07-30T08:59:23;1.75;;;1.13;;
6288;SDS011;3177;49.880;8.836;2023-07-30T09:01:51;1.20;;;1.10;;
6288;SDS011;3177;49.880;8.836;2023-07-30T09:04:18;1.50;;;1.40;;
6288;SDS011;3177;49.880;8.836;2023-07-30T09:06:47;3.53;;;1.50;;
6288;SDS011;3177;49.880;8.836;2023-07-30T09:09:15;2.25;;;1.58;;
6288;SDS011;3177;49.880;8.836;2023-07-30T09:11:43;1.95;;;1.52;;
6288;SDS011;3177;49.880;8.836;2023-07-30T09:14:10;3.08;;;1.50;;
6288;SDS011;3177;49.880;8.836;2023-07-30T09:16:37;1.65;;;1.50;;
6288;SDS011;3177;49.880;8.836;2023-07-30T09:19:05;1.40;;;1.30;;
6288;SDS011;3177;49.880;8.836;2023-07-30T09:21:33;2.72;;;1.80;;
6288;SDS011;3177;49.880;8.836;2023-07-30T09:24:01;1.40;;;1.33;;
6288;SDS011;3177;49.880;8.836;2023-07-30T09:26:31;1.60;;;1.50;;
6288;SDS011;3177;49.880;8.836;2023-07-30T09:29:08;1.60;;;1.50;;
6288;SDS011;3177;49.880;8.836;2023-07-30T09:31:48;1.33;;;1.17;;
6288;SDS011;3177;49.880;8.836;2023-07-30T09:34:16;1.65;;;1.55;;
6288;SDS011;3177;49.880;8.836;2023-07-30T09:36:45;1.85;;;1.70;;
6288;SDS011;3177;49.880;8.836;2023-07-30T09:39:15;3.05;;;1.90;;
6288;SDS011;3177;49.880;8.836;2023-07-30T09:41:43;2.78;;;1.80;;
6288;SDS011;3177;49.880;8.836;2023-07-30T09:44:11;2.38;;;1.80;;
6288;SDS011;3177;49.880;8.836;2023-07-30T09:46:43;1.80;;;1.70;;
6288;SDS011;3177;49.880;8.836;2023-07-30T09:49:10;3.08;;;1.80;;
6288;SDS011;3177;49.880;8.836;2023-07-30T09:51:37;1.92;;;1.83;;
6288;SDS011;3177;49.880;8.836;2023-07-30T09:54:05;3.83;;;1.90;;
6288;SDS011;3177;49.880;8.836;2023-07-30T09:56:33;2.30;;;1.52;;
6288;SDS011;3177;49.880;8.836;2023-07-30T09:59:00;0.80;;;0.80;;
6288;SDS011;3177;49.880;8.836;2023-07-30T10:01:29;0.80;;;0.80;;
6288;SDS011;3177;49.880;8.836;2023-07-30T10:03:57;0.82;;;0.82;;
6288;SDS011;3177;49.880;8.836;2023-07-30T10:06:25;0.80;;;0.80;;
6288;SDS011;3177;49.880;8.836;2023-07-30T10:08:53;1.17;;;0.77;;
6288;SDS011;3177;49.880;8.836;2023-07-30T10:11:20;1.55;;;0.80;;
6288;SDS011;3177;49.880;8.836;2023-07-30T10:13:47;1.50;;;0.70;;
6288;SDS011;3177;49.880;8.836;2023-07-30T10:16:14;0.63;;;0.63;;
6288;SDS011;3177;49.880;8.836;2023-07-30T10:18:43;0.77;;;0.77;;
6288;SDS011;3177;49.880;8.836;2023-07-30T10:21:10;0.75;;;0.60;;
6288;SDS011;3177;49.880;8.836;2023-07-30T10:23:49;0.73;;;0.60;;
6288;SDS011;3177;49.880;8.836;2023-07-30T10:26:26;0.52;;;0.52;;
6288;SDS011;3177;49.880;8.836;2023-07-30T10:29:02;0.70;;;0.70;;
6288;SDS011;3177;49.880;8.836;2023-07-30T10:31:39;3.85;;;0.60;;
6288;SDS011;3177;49.880;8.836;2023-07-30T10:34:08;0.55;;;0.55;;
6288;SDS011;3177;49.880;8.836;2023-07-30T10:36:42;0.47;;;0.47;;
6288;SDS011;3177;49.880;8.836;2023-07-30T10:39:10;1.65;;;1.00;;
6288;SDS011;3177;49.880;8.836;2023-07-30T10:41:37;0.50;;;0.50;;
6288;SDS011;3177;49.880;8.836;2023-07-30T10:44:05;0.80;;;0.80;;
6288;SDS011;3177;49.880;8.836;2023-07-30T10:46:32;1.20;;;0.70;;
6288;SDS011;3177;49.880;8.836;2023-07-30T10:48:59;0.70;;;0.70;;
6288;SDS011;3177;49.880;8.836;2023-07-30T10:51:27;1.23;;;0.60;;
6288;SDS011;3177;49.880;8.836;2023-07-30T10:53:54;1.50;;;0.57;;
6288;SDS011;3177;49.880;8.836;2023-07-30T10:56:21;3.33;;;0.75;;
6288;SDS011;3177;49.880;8.836;2023-07-30T10:58:49;0.75;;;0.63;;
6288;SDS011;3177;49.880;8.836;2023-07-30T11:01:17;1.50;;;0.80;;
6288;SDS011;3177;49.880;8.836;2023-07-30T11:03:47;1.05;;;0.65;;
6288;SDS011;3177;49.880;8.836;2023-07-30T11:06:20;0.60;;;0.50;;
6288;SDS011;3177;49.880;8.836;2023-07-30T11:08:49;1.35;;;0.85;;
6288;SDS011;3177;49.880;8.836;2023-07-30T11:11:16;4.43;;;0.95;;
6288;SDS011;3177;49.880;8.836;2023-07-30T11:13:43;1.15;;;0.90;;
6288;SDS011;3177;49.880;8.836;2023-07-30T11:16:11;3.28;;;1.05;;
6288;SDS011;3177;49.880;8.836;2023-07-30T11:18:41;2.47;;;0.93;;
6288;SDS011;3177;49.880;8.836;2023-07-30T11:21:08;1.58;;;1.10;;
6288;SDS011;3177;49.880;8.836;2023-07-30T11:23:36;1.42;;;0.90;;
6288;SDS011;3177;49.880;8.836;2023-07-30T11:26:06;4.38;;;0.90;;
6288;SDS011;3177;49.880;8.836;2023-07-30T11:28:33;2.05;;;1.05;;
6288;SDS011;3177;49.880;8.836;2023-07-30T11:31:01;1.35;;;1.00;;
6288;SDS011;3177;49.880;8.836;2023-07-30T11:33:28;2.92;;;1.00;;
6288;SDS011;3177;49.880;8.836;2023-07-30T11:35:56;1.83;;;0.80;;
6288;SDS011;3177;49.880;8.836;2023-07-30T11:38:23;0.90;;;0.90;;
6288;SDS011;3177;49.880;8.836;2023-07-30T11:40:50;1.13;;;0.90;;
6288;SDS011;3177;49.880;8.836;2023-07-30T11:43:19;1.52;;;0.90;;
6288;SDS011;3177;49.880;8.836;2023-07-30T11:45:46;2.25;;;0.80;;
6288;SDS011;3177;49.880;8.836;2023-07-30T11:48:13;1.77;;;0.80;;
6288;SDS011;3177;49.880;8.836;2023-07-30T11:50:47;3.60;;;1.40;;
6288;SDS011;3177;49.880;8.836;2023-07-30T11:53:14;3.15;;;0.98;;
6288;SDS011;3177;49.880;8.836;2023-07-30T11:55:41;2.47;;;1.25;;
6288;SDS011;3177;49.880;8.836;2023-07-30T11:58:10;1.85;;;1.10;;
6288;SDS011;3177;49.880;8.836;2023-07-30T12:00:39;3.47;;;1.08;;
6288;SDS011;3177;49.880;8.836;2023-07-30T12:03:06;2.15;;;1.10;;
6288;SDS011;3177;49.880;8.836;2023-07-30T12:05:34;2.65;;;1.00;;
6288;SDS011;3177;49.880;8.836;2023-07-30T12:08:01;2.05;;;1.00;;
6288;SDS011;3177;49.880;8.836;2023-07-30T12:10:40;2.80;;;1.30;;
6288;SDS011;3177;49.880;8.836;2023-07-30T12:13:11;3.78;;;1.40;;
6288;SDS011;3177;49.880;8.836;2023-07-30T12:15:39;1.92;;;1.00;;
6288;SDS011;3177;49.880;8.836;2023-07-30T12:18:06;2.95;;;1.48;;
6288;SDS011;3177;49.880;8.836;2023-07-30T12:20:33;2.20;;;0.98;;
6288;SDS011;3177;49.880;8.836;2023-07-30T12:23:01;1.45;;;0.90;;
6288;SDS011;3177;49.880;8.836;2023-07-30T12:25:28;1.60;;;1.23;;
6288;SDS011;3177;49.880;8.836;2023-07-30T12:27:55;1.80;;;1.00;;
6288;SDS011;3177;49.880;8.836;2023-07-30T12:30:22;3.45;;;1.23;;
6288;SDS011;3177;49.880;8.836;2023-07-30T12:32:52;2.38;;;1.27;;
6288;SDS011;3177;49.880;8.836;2023-07-30T12:35:19;2.83;;;1.23;;
6288;SDS011;3177;49.880;8.836;2023-07-30T12:37:46;4.03;;;1.42;;
6288;SDS011;3177;49.880;8.836;2023-07-30T12:40:13;2.38;;;1.13;;
6288;SDS011;3177;49.880;8.836;2023-07-30T12:42:40;3.08;;;1.20;;
6288;SDS011;3177;49.880;8.836;2023-07-30T12:45:08;1.40;;;0.98;;
6288;SDS011;3177;49.880;8.836;2023-07-30T12:47:35;2.72;;;1.10;;
6288;SDS011;3177;49.880;8.836;2023-07-30T12:50:04;1.98;;;0.85;;
6288;SDS011;3177;49.880;8.836;2023-07-30T12:52:31;4.03;;;1.50;;
6288;SDS011;3177;49.880;8.836;2023-07-30T12:54:58;4.03;;;1.15;;
6288;SDS011;3177;49.880;8.836;2023-07-30T12:57:25;3.85;;;1.20;;
6288;SDS011;3177;49.880;8.836;2023-07-30T12:59:52;1.27;;;0.90;;
6288;SDS011;3177;49.880;8.836;2023-07-30T13:02:19;1.25;;;1.10;;
6288;SDS011;3177;49.880;8.836;2023-07-30T13:04:46;1.30;;;1.20;;
6288;SDS011;3177;49.880;8.836;2023-07-30T13:07:15;3.22;;;1.40;;
6288;SDS011;3177;49.880;8.836;2023-07-30T13:09:42;4.97;;;1.08;;
6288;SDS011;3177;49.880;8.836;2023-07-30T13:12:09;4.03;;;1.23;;
6288;SDS011;3177;49.880;8.836;2023-07-30T13:14:36;2.35;;;1.35;;
6288;SDS011;3177;49.880;8.836;2023-07-30T13:17:03;1.73;;;0.93;;
6288;SDS011;3177;49.880;8.836;2023-07-30T13:19:30;2.78;;;1.20;;
6288;SDS011;3177;49.880;8.836;2023-07-30T13:21:58;1.35;;;1.10;;
6288;SDS011;3177;49.880;8.836;2023-07-30T13:24:26;1.65;;;0.70;;
6288;SDS011;3177;49.880;8.836;2023-07-30T13:26:56;1.63;;;0.93;;
6288;SDS011;3177;49.880;8.836;2023-07-30T13:29:23;1.60;;;1.23;;
6288;SDS011;3177;49.880;8.836;2023-07-30T13:31:50;1.88;;;0.93;;
6288;SDS011;3177;49.880;8.836;2023-07-30T13:34:17;2.35;;;1.30;;
6288;SDS011;3177;49.880;8.836;2023-07-30T13:36:44;2.00;;;1.10;;
6288;SDS011;3177;49.880;8.836;2023-07-30T13:39:11;1.95;;;1.02;;
6288;SDS011;3177;49.880;8.836;2023-07-30T13:41:40;2.08;;;1.30;;
6288;SDS011;3177;49.880;8.836;2023-07-30T13:44:07;2.42;;;1.30;;
6288;SDS011;3177;49.880;8.836;2023-07-30T13:46:35;2.95;;;1.13;;
6288;SDS011;3177;49.880;8.836;2023-07-30T13:49:03;3.47;;;1.30;;
6288;SDS011;3177;49.880;8.836;2023-07-30T13:51:30;1.33;;;1.00;;
6288;SDS011;3177;49.880;8.836;2023-07-30T13:53:58;1.80;;;0.90;;
6288;SDS011;3177;49.880;8.836;2023-07-30T13:56:25;2.17;;;1.00;;
6288;SDS011;3177;49.880;8.836;2023-07-30T13:58:53;3.67;;;1.08;;
6288;SDS011;3177;49.880;8.836;2023-07-30T14:01:20;3.92;;;1.02;;
6288;SDS011;3177;49.880;8.836;2023-07-30T14:03:47;1.30;;;0.80;;
6288;SDS011;3177;49.880;8.836;2023-07-30T14:06:14;2.67;;;1.40;;
6288;SDS011;3177;49.880;8.836;2023-07-30T14:08:41;1.08;;;0.90;;
6288;SDS011;3177;49.880;8.836;2023-07-30T14:11:08;2.78;;;1.10;;
6288;SDS011;3177;49.880;8.836;2023-07-30T14:13:36;2.25;;;1.17;;
6288;SDS011;3177;49.880;8.836;2023-07-30T14:16:04;1.10;;;0.82;;
6288;SDS011;3177;49.880;8.836;2023-07-30T14:18:32;2.38;;;1.30;;
6288;SDS011;3177;49.880;8.836;2023-07-30T14:20:59;1.98;;;1.17;;
6288;SDS011;3177;49.880;8.836;2023-07-30T14:23:27;4.40;;;1.65;;
6288;SDS011;3177;49.880;8.836;2023-07-30T14:25:54;2.38;;;0.90;;
6288;SDS011;3177;49.880;8.836;2023-07-30T14:28:21;1.65;;;1.17;;
6288;SDS011;3177;49.880;8.836;2023-07-30T14:30:48;2.85;;;1.38;;
6288;SDS011;3177;49.880;8.836;2023-07-30T14:33:17;2.65;;;1.10;;
6288;SDS011;3177;49.880;8.836;2023-07-30T14:35:44;2.17;;;1.30;;
6288;SDS011;3177;49.880;8.836;2023-07-30T14:38:11;2.90;;;1.30;;
6288;SDS011;3177;49.880;8.836;2023-07-30T14:40:38;2.40;;;1.45;;
6288;SDS011;3177;49.880;8.836;2023-07-30T14:43:06;4.38;;;1.35;;
6288;SDS011;3177;49.880;8.836;2023-07-30T14:45:33;4.35;;;1.50;;
6288;SDS011;3177;49.880;8.836;2023-07-30T14:48:00;3.03;;;1.20;;
6288;SDS011;3177;49.880;8.836;2023-07-30T14:50:28;2.03;;;1.10;;
6288;SDS011;3177;49.880;8.836;2023-07-30T14:52:55;2.33;;;1.08;;
6288;SDS011;3177;49.880;8.836;2023-07-30T14:55:22;2.30;;;1.00;;
6288;SDS011;3177;49.880;8.836;2023-07-30T14:57:49;1.70;;;1.20;;
6288;SDS011;3177;49.880;8.836;2023-07-30T15:00:16;5.45;;;1.30;;
6288;SDS011;3177;49.880;8.836;2023-07-30T15:02:43;2.30;;;1.10;;
6288;SDS011;3177;49.880;8.836;2023-07-30T15:05:10;1.65;;;1.00;;
6288;SDS011;3177;49.880;8.836;2023-07-30T15:07:39;2.05;;;1.30;;
6288;SDS011;3177;49.880;8.836;2023-07-30T15:10:06;2.88;;;1.20;;
6288;SDS011;3177;49.880;8.836;2023-07-30T15:12:34;2.67;;;1.20;;
6288;SDS011;3177;49.880;8.836;2023-07-30T15:15:01;4.00;;;1.20;;
6288;SDS011;3177;49.880;8.836;2023-07-30T15:17:29;2.60;;;1.08;;
6288;SDS011;3177;49.880;8.836;2023-07-30T15:19:56;2.63;;;1.02;;
6288;SDS011;3177;49.880;8.836;2023-07-30T15:22:24;2.13;;;1.17;;
6288;SDS011;3177;49.880;8.836;2023-07-30T15:24:53;2.00;;;1.05;;